Amistad — WCZ9672 — position and weather

sailwx.info

Track history (hours):
 
Tides and Currents Weather Stations Pressure Air Temp Water Temp Dewpoint Dewpoint Depression Visibility Wind Speed Wind Dir Waves Ship Positions

Amistad (United States)

Ship's website: http://www.amistadvoyages.org/

Owner: AMISTAD AMERICA, New Haven, CT. More information available from US FCC via Universal Licensing System and Coast Guard Vessel Documentation Center.

Last reported at 2018-Jun-21 23:32 UTC. Time now 2018-Jun-22 01:37 UTC.
Position N 41°14' W 072°55'.

Length 39 m; draft 3.4 m.

Type: Sailing vessel. MMSI: 369547000.

Date/timePositionNaut miles runAvg speedWind from/ knotsBaromVisibWave heightAir tempDewpointWater temp
2018-Jun-21 23:32N 41°14' W 072°55'0 2.8
2018-Jun-21 23:30N 41°14' W 072°55'0 0.0
2018-Jun-20 23:11N 41°14' W 072°55'0 1.0
2018-Jun-20 22:57N 41°14' W 072°55'  
2018-Jun-18 18:47N 41°12' W 072°46'2 6.7
2018-Jun-18 18:30N 41°12' W 072°44'3 5.5
2018-Jun-18 17:59N 41°12' W 072°40'4 7.8
2018-Jun-18 17:30N 41°13' W 072°35'3 5.1
2018-Jun-18 17:00N 41°13' W 072°32'1 2.7
2018-Jun-18 16:30N 41°13' W 072°30'3 5.7
2018-Jun-18 16:00N 41°12' W 072°26'3 6.8
2018-Jun-18 15:30N 41°12' W 072°22'2 4.0
2018-Jun-18 14:58N 41°12' W 072°19'1 1.1
2018-Jun-18 14:29N 41°12' W 072°18'6 2.9
2018-Jun-18 12:21N 41°07' W 072°15'2 6.3
2018-Jun-18 12:00N 41°06' W 072°18'3 5.1
2018-Jun-18 11:29N 41°06' W 072°21'0 0.2
2018-Jun-18 09:54N 41°06' W 072°22'0 0.0
2018-Jun-18 09:30N 41°06' W 072°22'0 0.0
2018-Jun-18 08:54N 41°06' W 072°22'0 0.0
2018-Jun-18 08:30N 41°06' W 072°22'0 0.0
2018-Jun-18 07:58N 41°06' W 072°22'0 0.0
2018-Jun-18 03:53N 41°06' W 072°22'0 0.0
2018-Jun-18 03:29N 41°06' W 072°22'0 0.0
2018-Jun-18 03:00N 41°06' W 072°22'0 0.0
2018-Jun-18 02:30N 41°06' W 072°22'0 0.0
2018-Jun-17 23:53N 41°06' W 072°22'1 1.9
2018-Jun-17 23:30N 41°06' W 072°21'1 1.8
2018-Jun-17 23:00N 41°07' W 072°20'2 3.6
2018-Jun-17 22:29N 41°05' W 072°22'0 0.6
2018-Jun-17 21:50N 41°06' W 072°21'0 0.1
2018-Jun-17 19:34N 41°06' W 072°22'0 0.0
2018-Jun-17 19:30N 41°06' W 072°22'0 0.0
2018-Jun-17 17:39N 41°06' W 072°22'0 0.0
2018-Jun-17 17:22N 41°06' W 072°22'0 0.0
2018-Jun-17 16:59N 41°06' W 072°22'0 0.0
2018-Jun-17 16:30N 41°06' W 072°22'0 1.0
2018-Jun-17 16:00N 41°06' W 072°21'0 0.3
2018-Jun-17 14:17N 41°06' W 072°21'2 0.1
2018-Jun-16 23:30N 41°07' W 072°19'0 0.6
2018-Jun-16 22:55N 41°06' W 072°19'2 3.6
2018-Jun-16 22:30N 41°06' W 072°21'1 0.1
2018-Jun-16 16:38N 41°06' W 072°22'0 0.0
2018-Jun-16 16:30N 41°06' W 072°22'1 1.2
2018-Jun-16 15:53N 41°06' W 072°21'1 1.8
2018-Jun-16 15:30N 41°06' W 072°21'1 1.4
2018-Jun-16 15:00N 41°05' W 072°22'0 0.8
2018-Jun-16 14:24N 41°06' W 072°22'0 1.1
2018-Jun-16 14:00N 41°06' W 072°22'0 0.0
2018-Jun-16 11:44N 41°06' W 072°22'0 0.0
2018-Jun-16 11:25N 41°06' W 072°22'0 0.0
2018-Jun-16 10:23N 41°06' W 072°22'0 0.0
2018-Jun-16 09:41N 41°06' W 072°22'0 0.0
2018-Jun-16 09:29N 41°06' W 072°22'0 0.0
2018-Jun-16 08:09N 41°06' W 072°22'0 0.0
2018-Jun-16 07:54N 41°06' W 072°22'0 0.0
2018-Jun-16 07:30N 41°06' W 072°22'0 0.0
2018-Jun-16 07:00N 41°06' W 072°22'0 0.0
2018-Jun-16 06:30N 41°06' W 072°22'0 0.0
2018-Jun-16 04:34N 41°06' W 072°22'0 0.0
2018-Jun-16 04:25N 41°06' W 072°22'0 0.0
2018-Jun-16 03:59N 41°06' W 072°22'1 0.1
2018-Jun-15 18:03N 41°06' W 072°21'0 3.2
2018-Jun-15 17:59N 41°06' W 072°21'1 0.3
2018-Jun-15 14:07N 41°07' W 072°20'1 1.7
2018-Jun-15 13:49N 41°06' W 072°20'1 1.5
2018-Jun-15 13:26N 41°06' W 072°21'0 1.0
2018-Jun-15 13:00N 41°06' W 072°21'0 0.0
2018-Jun-14 23:08N 41°06' W 072°21'1 4.4
2018-Jun-14 22:50N 41°07' W 072°19'0 0.3
2018-Jun-14 22:30N 41°07' W 072°19'1 2.6
2018-Jun-14 21:59N 41°06' W 072°21'1 0.7
2018-Jun-14 21:10N 41°06' W 072°22'1 0.4
2018-Jun-14 18:32N 41°06' W 072°20'1 4.7
2018-Jun-14 18:25N 41°07' W 072°20'1 2.4
2018-Jun-14 17:55N 41°08' W 072°19'1 1.8
2018-Jun-14 17:30N 41°07' W 072°19'2 3.6
2018-Jun-14 17:01N 41°06' W 072°21'1 0.4
2018-Jun-14 14:17N 41°07' W 072°20'1 1.8
2018-Jun-14 13:57N 41°06' W 072°21'1 2.3
2018-Jun-14 13:26N 41°05' W 072°22'0 0.8
2018-Jun-14 12:55N 41°06' W 072°21'  
Track history (hours):
 
Tides and Currents Weather Stations Pressure Air Temp Water Temp Dewpoint Dewpoint Depression Visibility Wind Speed Wind Dir Waves Ship Positions

Amistad (United States)

Ship's website: http://www.amistadvoyages.org/

Owner: AMISTAD AMERICA, New Haven, CT. More information available from US FCC via Universal Licensing System and Coast Guard Vessel Documentation Center.

Last reported at 2018-Jun-21 23:32 UTC. Time now 2018-Jun-22 01:37 UTC.
Position N 41°14' W 072°55'.

Length 39 m; draft 3.4 m.

Type: Sailing vessel. MMSI: 369547000.

Date/timePositionNaut miles runAvg speedWind from/ knotsBaromVisibWave heightAir tempDewpointWater temp
2018-Jun-21 23:32N 41°14' W 072°55'0 2.8
2018-Jun-21 23:30N 41°14' W 072°55'0 0.0
2018-Jun-20 23:11N 41°14' W 072°55'0 1.0
2018-Jun-20 22:57N 41°14' W 072°55'  
2018-Jun-18 18:47N 41°12' W 072°46'2 6.7
2018-Jun-18 18:30N 41°12' W 072°44'3 5.5
2018-Jun-18 17:59N 41°12' W 072°40'4 7.8
2018-Jun-18 17:30N 41°13' W 072°35'3 5.1
2018-Jun-18 17:00N 41°13' W 072°32'1 2.7
2018-Jun-18 16:30N 41°13' W 072°30'3 5.7
2018-Jun-18 16:00N 41°12' W 072°26'3 6.8
2018-Jun-18 15:30N 41°12' W 072°22'2 4.0
2018-Jun-18 14:58N 41°12' W 072°19'1 1.1
2018-Jun-18 14:29N 41°12' W 072°18'6 2.9
2018-Jun-18 12:21N 41°07' W 072°15'2 6.3
2018-Jun-18 12:00N 41°06' W 072°18'3 5.1
2018-Jun-18 11:29N 41°06' W 072°21'0 0.2
2018-Jun-18 09:54N 41°06' W 072°22'0 0.0
2018-Jun-18 09:30N 41°06' W 072°22'0 0.0
2018-Jun-18 08:54N 41°06' W 072°22'0 0.0
2018-Jun-18 08:30N 41°06' W 072°22'0 0.0
2018-Jun-18 07:58N 41°06' W 072°22'0 0.0
2018-Jun-18 03:53N 41°06' W 072°22'0 0.0
2018-Jun-18 03:29N 41°06' W 072°22'0 0.0
2018-Jun-18 03:00N 41°06' W 072°22'0 0.0
2018-Jun-18 02:30N 41°06' W 072°22'0 0.0
2018-Jun-17 23:53N 41°06' W 072°22'1 1.9
2018-Jun-17 23:30N 41°06' W 072°21'1 1.8
2018-Jun-17 23:00N 41°07' W 072°20'2 3.6
2018-Jun-17 22:29N 41°05' W 072°22'0 0.6
2018-Jun-17 21:50N 41°06' W 072°21'0 0.1
2018-Jun-17 19:34N 41°06' W 072°22'0 0.0
2018-Jun-17 19:30N 41°06' W 072°22'0 0.0
2018-Jun-17 17:39N 41°06' W 072°22'0 0.0
2018-Jun-17 17:22N 41°06' W 072°22'0 0.0
2018-Jun-17 16:59N 41°06' W 072°22'0 0.0
2018-Jun-17 16:30N 41°06' W 072°22'0 1.0
2018-Jun-17 16:00N 41°06' W 072°21'0 0.3
2018-Jun-17 14:17N 41°06' W 072°21'2 0.1
2018-Jun-16 23:30N 41°07' W 072°19'0 0.6
2018-Jun-16 22:55N 41°06' W 072°19'2 3.6
2018-Jun-16 22:30N 41°06' W 072°21'1 0.1
2018-Jun-16 16:38N 41°06' W 072°22'0 0.0
2018-Jun-16 16:30N 41°06' W 072°22'1 1.2
2018-Jun-16 15:53N 41°06' W 072°21'1 1.8
2018-Jun-16 15:30N 41°06' W 072°21'1 1.4
2018-Jun-16 15:00N 41°05' W 072°22'0 0.8
2018-Jun-16 14:24N 41°06' W 072°22'0 1.1
2018-Jun-16 14:00N 41°06' W 072°22'0 0.0
2018-Jun-16 11:44N 41°06' W 072°22'0 0.0
2018-Jun-16 11:25N 41°06' W 072°22'0 0.0
2018-Jun-16 10:23N 41°06' W 072°22'0 0.0
2018-Jun-16 09:41N 41°06' W 072°22'0 0.0
2018-Jun-16 09:29N 41°06' W 072°22'0 0.0
2018-Jun-16 08:09N 41°06' W 072°22'0 0.0
2018-Jun-16 07:54N 41°06' W 072°22'0 0.0
2018-Jun-16 07:30N 41°06' W 072°22'0 0.0
2018-Jun-16 07:00N 41°06' W 072°22'0 0.0
2018-Jun-16 06:30N 41°06' W 072°22'0 0.0
2018-Jun-16 04:34N 41°06' W 072°22'0 0.0
2018-Jun-16 04:25N 41°06' W 072°22'0 0.0
2018-Jun-16 03:59N 41°06' W 072°22'1 0.1
2018-Jun-15 18:03N 41°06' W 072°21'0 3.2
2018-Jun-15 17:59N 41°06' W 072°21'1 0.3
2018-Jun-15 14:07N 41°07' W 072°20'1 1.7
2018-Jun-15 13:49N 41°06' W 072°20'1 1.5
2018-Jun-15 13:26N 41°06' W 072°21'0 1.0
2018-Jun-15 13:00N 41°06' W 072°21'0 0.0
2018-Jun-14 23:08N 41°06' W 072°21'1 4.4
2018-Jun-14 22:50N 41°07' W 072°19'0 0.3
2018-Jun-14 22:30N 41°07' W 072°19'1 2.6
2018-Jun-14 21:59N 41°06' W 072°21'1 0.7
2018-Jun-14 21:10N 41°06' W 072°22'1 0.4
2018-Jun-14 18:32N 41°06' W 072°20'1 4.7
2018-Jun-14 18:25N 41°07' W 072°20'1 2.4
2018-Jun-14 17:55N 41°08' W 072°19'1 1.8
2018-Jun-14 17:30N 41°07' W 072°19'2 3.6
2018-Jun-14 17:01N 41°06' W 072°21'1 0.4
2018-Jun-14 14:17N 41°07' W 072°20'1 1.8
2018-Jun-14 13:57N 41°06' W 072°21'1 2.3
2018-Jun-14 13:26N 41°05' W 072°22'0 0.8
2018-Jun-14 12:55N 41°06' W 072°21'  

Dump ship's entire track history